sensor_id;sensor_type;location;lat;lon;timestamp;P1;durP1;ratioP1;P2;durP2;ratioP2
70420;SDS011;57848;51.938;15.520;2023-12-29T00:01:31;9.37;;;3.67;;
70420;SDS011;57848;51.938;15.520;2023-12-29T00:03:56;10.10;;;3.70;;
70420;SDS011;57848;51.938;15.520;2023-12-29T00:06:22;10.87;;;3.60;;
70420;SDS011;57848;51.938;15.520;2023-12-29T00:08:47;11.27;;;3.80;;
70420;SDS011;57848;51.938;15.520;2023-12-29T00:11:16;9.10;;;3.07;;
70420;SDS011;57848;51.938;15.520;2023-12-29T00:13:45;9.13;;;4.00;;
70420;SDS011;57848;51.938;15.520;2023-12-29T00:16:10;9.30;;;3.50;;
70420;SDS011;57848;51.938;15.520;2023-12-29T00:18:38;8.10;;;2.90;;
70420;SDS011;57848;51.938;15.520;2023-12-29T00:21:04;7.25;;;3.03;;
70420;SDS011;57848;51.938;15.520;2023-12-29T00:23:30;8.05;;;3.38;;
70420;SDS011;57848;51.938;15.520;2023-12-29T00:25:55;10.47;;;3.37;;
70420;SDS011;57848;51.938;15.520;2023-12-29T00:28:21;10.67;;;2.80;;
70420;SDS011;57848;51.938;15.520;2023-12-29T00:30:46;8.25;;;2.90;;
70420;SDS011;57848;51.938;15.520;2023-12-29T00:33:11;9.13;;;2.87;;
70420;SDS011;57848;51.938;15.520;2023-12-29T00:35:37;8.10;;;2.80;;
70420;SDS011;57848;51.938;15.520;2023-12-29T00:38:04;8.55;;;2.80;;
70420;SDS011;57848;51.938;15.520;2023-12-29T00:40:30;9.60;;;3.17;;
70420;SDS011;57848;51.938;15.520;2023-12-29T00:42:55;9.70;;;2.57;;
70420;SDS011;57848;51.938;15.520;2023-12-29T00:45:20;9.38;;;3.25;;
70420;SDS011;57848;51.938;15.520;2023-12-29T00:47:47;8.23;;;2.93;;
70420;SDS011;57848;51.938;15.520;2023-12-29T00:50:13;7.50;;;2.55;;
70420;SDS011;57848;51.938;15.520;2023-12-29T00:52:39;9.63;;;2.97;;
70420;SDS011;57848;51.938;15.520;2023-12-29T00:55:04;8.10;;;3.03;;
70420;SDS011;57848;51.938;15.520;2023-12-29T00:57:30;7.70;;;2.90;;
70420;SDS011;57848;51.938;15.520;2023-12-29T00:59:55;9.03;;;3.00;;
70420;SDS011;57848;51.938;15.520;2023-12-29T01:02:20;9.20;;;2.80;;
70420;SDS011;57848;51.938;15.520;2023-12-29T01:04:46;7.50;;;2.87;;
70420;SDS011;57848;51.938;15.520;2023-12-29T01:07:11;7.83;;;2.67;;
70420;SDS011;57848;51.938;15.520;2023-12-29T01:09:37;7.73;;;2.53;;
70420;SDS011;57848;51.938;15.520;2023-12-29T01:12:05;6.60;;;2.22;;
70420;SDS011;57848;51.938;15.520;2023-12-29T01:14:30;9.20;;;2.50;;
70420;SDS011;57848;51.938;15.520;2023-12-29T01:16:55;8.73;;;3.30;;
70420;SDS011;57848;51.938;15.520;2023-12-29T01:19:21;6.43;;;2.28;;
70420;SDS011;57848;51.938;15.520;2023-12-29T01:21:47;7.37;;;2.63;;
70420;SDS011;57848;51.938;15.520;2023-12-29T01:24:12;10.30;;;2.80;;
70420;SDS011;57848;51.938;15.520;2023-12-29T01:26:37;8.30;;;2.23;;
70420;SDS011;57848;51.938;15.520;2023-12-29T01:29:03;9.15;;;2.53;;
70420;SDS011;57848;51.938;15.520;2023-12-29T01:31:29;7.53;;;2.50;;
70420;SDS011;57848;51.938;15.520;2023-12-29T01:33:57;6.80;;;2.30;;
70420;SDS011;57848;51.938;15.520;2023-12-29T01:36:23;7.65;;;2.90;;
70420;SDS011;57848;51.938;15.520;2023-12-29T01:38:49;9.87;;;2.90;;
70420;SDS011;57848;51.938;15.520;2023-12-29T01:41:14;10.50;;;2.97;;
70420;SDS011;57848;51.938;15.520;2023-12-29T01:46:29;8.57;;;3.17;;
70420;SDS011;57848;51.938;15.520;2023-12-29T01:48:58;8.25;;;2.60;;
70420;SDS011;57848;51.938;15.520;2023-12-29T01:51:24;9.15;;;2.80;;
70420;SDS011;57848;51.938;15.520;2023-12-29T01:53:52;7.38;;;2.58;;
70420;SDS011;57848;51.938;15.520;2023-12-29T01:56:19;8.07;;;2.65;;
70420;SDS011;57848;51.938;15.520;2023-12-29T01:58:45;7.83;;;2.47;;
70420;SDS011;57848;51.938;15.520;2023-12-29T02:01:12;7.90;;;2.88;;
70420;SDS011;57848;51.938;15.520;2023-12-29T02:03:39;7.93;;;2.80;;
70420;SDS011;57848;51.938;15.520;2023-12-29T02:06:04;7.70;;;3.17;;
70420;SDS011;57848;51.938;15.520;2023-12-29T02:08:31;6.90;;;2.78;;
70420;SDS011;57848;51.938;15.520;2023-12-29T02:10:57;8.80;;;3.00;;
70420;SDS011;57848;51.938;15.520;2023-12-29T02:13:23;8.48;;;3.08;;
70420;SDS011;57848;51.938;15.520;2023-12-29T02:15:50;8.90;;;2.90;;
70420;SDS011;57848;51.938;15.520;2023-12-29T02:18:17;8.20;;;2.88;;
70420;SDS011;57848;51.938;15.520;2023-12-29T02:20:43;7.43;;;2.67;;
70420;SDS011;57848;51.938;15.520;2023-12-29T02:23:09;8.13;;;2.93;;
70420;SDS011;57848;51.938;15.520;2023-12-29T02:25:35;6.35;;;2.35;;
70420;SDS011;57848;51.938;15.520;2023-12-29T02:28:06;8.32;;;2.63;;
70420;SDS011;57848;51.938;15.520;2023-12-29T02:30:56;7.00;;;2.30;;
70420;SDS011;57848;51.938;15.520;2023-12-29T02:33:22;7.50;;;2.30;;
70420;SDS011;57848;51.938;15.520;2023-12-29T02:35:48;6.82;;;2.88;;
70420;SDS011;57848;51.938;15.520;2023-12-29T02:38:18;8.15;;;2.47;;
70420;SDS011;57848;51.938;15.520;2023-12-29T02:40:44;6.80;;;2.20;;
70420;SDS011;57848;51.938;15.520;2023-12-29T02:43:09;8.37;;;2.47;;
70420;SDS011;57848;51.938;15.520;2023-12-29T02:45:34;9.80;;;2.75;;
70420;SDS011;57848;51.938;15.520;2023-12-29T02:48:00;7.43;;;2.53;;
70420;SDS011;57848;51.938;15.520;2023-12-29T02:50:25;6.80;;;2.63;;
70420;SDS011;57848;51.938;15.520;2023-12-29T02:52:51;7.17;;;2.73;;
70420;SDS011;57848;51.938;15.520;2023-12-29T02:55:16;7.23;;;3.23;;
70420;SDS011;57848;51.938;15.520;2023-12-29T02:57:42;7.05;;;2.67;;
70420;SDS011;57848;51.938;15.520;2023-12-29T03:00:08;7.60;;;2.60;;
70420;SDS011;57848;51.938;15.520;2023-12-29T03:02:33;7.50;;;2.58;;
70420;SDS011;57848;51.938;15.520;2023-12-29T03:04:59;7.73;;;2.13;;
70420;SDS011;57848;51.938;15.520;2023-12-29T03:07:24;8.20;;;2.37;;
70420;SDS011;57848;51.938;15.520;2023-12-29T03:09:50;7.77;;;2.10;;
70420;SDS011;57848;51.938;15.520;2023-12-29T03:12:15;8.80;;;2.50;;
70420;SDS011;57848;51.938;15.520;2023-12-29T03:14:40;6.37;;;2.20;;
70420;SDS011;57848;51.938;15.520;2023-12-29T03:17:06;6.27;;;2.00;;
70420;SDS011;57848;51.938;15.520;2023-12-29T03:19:32;6.33;;;1.83;;
70420;SDS011;57848;51.938;15.520;2023-12-29T03:21:57;6.90;;;2.23;;
70420;SDS011;57848;51.938;15.520;2023-12-29T03:24:22;6.97;;;2.20;;
70420;SDS011;57848;51.938;15.520;2023-12-29T03:26:48;6.17;;;2.07;;
70420;SDS011;57848;51.938;15.520;2023-12-29T03:29:13;6.00;;;1.93;;
70420;SDS011;57848;51.938;15.520;2023-12-29T03:31:38;5.77;;;1.90;;
70420;SDS011;57848;51.938;15.520;2023-12-29T03:34:05;5.13;;;1.50;;
70420;SDS011;57848;51.938;15.520;2023-12-29T03:36:30;5.28;;;1.85;;
70420;SDS011;57848;51.938;15.520;2023-12-29T03:38:56;6.37;;;1.57;;
70420;SDS011;57848;51.938;15.520;2023-12-29T03:41:21;6.00;;;1.50;;
70420;SDS011;57848;51.938;15.520;2023-12-29T03:43:46;5.87;;;1.47;;
70420;SDS011;57848;51.938;15.520;2023-12-29T03:46:18;5.87;;;1.80;;
70420;SDS011;57848;51.938;15.520;2023-12-29T03:48:44;5.47;;;1.20;;
70420;SDS011;57848;51.938;15.520;2023-12-29T03:51:10;5.07;;;1.50;;
70420;SDS011;57848;51.938;15.520;2023-12-29T03:53:35;5.50;;;1.87;;
70420;SDS011;57848;51.938;15.520;2023-12-29T03:56:13;6.50;;;1.67;;
70420;SDS011;57848;51.938;15.520;2023-12-29T03:58:40;6.55;;;2.10;;
70420;SDS011;57848;51.938;15.520;2023-12-29T04:01:09;5.83;;;1.70;;
70420;SDS011;57848;51.938;15.520;2023-12-29T04:03:36;5.17;;;1.57;;
70420;SDS011;57848;51.938;15.520;2023-12-29T04:06:01;5.80;;;1.55;;
70420;SDS011;57848;51.938;15.520;2023-12-29T04:08:27;6.13;;;1.83;;
70420;SDS011;57848;51.938;15.520;2023-12-29T04:10:52;4.95;;;1.50;;
70420;SDS011;57848;51.938;15.520;2023-12-29T04:13:18;5.80;;;1.70;;
70420;SDS011;57848;51.938;15.520;2023-12-29T04:15:43;5.67;;;1.83;;
70420;SDS011;57848;51.938;15.520;2023-12-29T04:18:08;5.33;;;1.70;;
70420;SDS011;57848;51.938;15.520;2023-12-29T04:20:34;4.90;;;1.50;;
70420;SDS011;57848;51.938;15.520;2023-12-29T04:22:59;6.27;;;1.60;;
70420;SDS011;57848;51.938;15.520;2023-12-29T04:25:24;4.67;;;1.40;;
70420;SDS011;57848;51.938;15.520;2023-12-29T04:27:50;8.50;;;1.70;;
70420;SDS011;57848;51.938;15.520;2023-12-29T04:30:16;5.90;;;1.65;;
70420;SDS011;57848;51.938;15.520;2023-12-29T04:32:41;5.15;;;1.50;;
70420;SDS011;57848;51.938;15.520;2023-12-29T04:35:08;5.73;;;1.40;;
70420;SDS011;57848;51.938;15.520;2023-12-29T04:37:37;5.15;;;1.42;;
70420;SDS011;57848;51.938;15.520;2023-12-29T04:40:04;5.63;;;1.10;;
70420;SDS011;57848;51.938;15.520;2023-12-29T04:42:30;4.72;;;1.20;;
70420;SDS011;57848;51.938;15.520;2023-12-29T04:44:55;4.80;;;1.63;;
70420;SDS011;57848;51.938;15.520;2023-12-29T04:47:20;6.03;;;1.43;;
70420;SDS011;57848;51.938;15.520;2023-12-29T04:49:46;4.90;;;1.67;;
70420;SDS011;57848;51.938;15.520;2023-12-29T04:52:11;6.03;;;1.37;;
70420;SDS011;57848;51.938;15.520;2023-12-29T04:54:36;5.38;;;1.48;;
70420;SDS011;57848;51.938;15.520;2023-12-29T04:57:02;4.50;;;1.30;;
70420;SDS011;57848;51.938;15.520;2023-12-29T04:59:27;5.93;;;1.40;;
70420;SDS011;57848;51.938;15.520;2023-12-29T05:01:53;5.73;;;1.27;;
70420;SDS011;57848;51.938;15.520;2023-12-29T05:04:18;5.17;;;1.57;;
70420;SDS011;57848;51.938;15.520;2023-12-29T05:06:43;5.43;;;1.50;;
70420;SDS011;57848;51.938;15.520;2023-12-29T05:09:09;6.67;;;1.87;;
70420;SDS011;57848;51.938;15.520;2023-12-29T05:11:34;6.90;;;2.00;;
70420;SDS011;57848;51.938;15.520;2023-12-29T05:13:59;6.03;;;2.03;;
70420;SDS011;57848;51.938;15.520;2023-12-29T05:16:25;6.93;;;2.23;;
70420;SDS011;57848;51.938;15.520;2023-12-29T05:18:50;5.50;;;1.90;;
70420;SDS011;57848;51.938;15.520;2023-12-29T05:21:18;6.33;;;1.80;;
70420;SDS011;57848;51.938;15.520;2023-12-29T05:23:44;5.93;;;1.60;;
70420;SDS011;57848;51.938;15.520;2023-12-29T05:26:10;4.50;;;1.50;;
70420;SDS011;57848;51.938;15.520;2023-12-29T05:28:36;6.67;;;1.70;;
70420;SDS011;57848;51.938;15.520;2023-12-29T05:31:01;5.87;;;1.53;;
70420;SDS011;57848;51.938;15.520;2023-12-29T05:33:32;5.47;;;1.38;;
70420;SDS011;57848;51.938;15.520;2023-12-29T05:35:58;5.43;;;1.73;;
70420;SDS011;57848;51.938;15.520;2023-12-29T05:38:24;4.82;;;1.40;;
70420;SDS011;57848;51.938;15.520;2023-12-29T05:40:50;4.90;;;1.30;;
70420;SDS011;57848;51.938;15.520;2023-12-29T05:43:16;4.72;;;1.20;;
70420;SDS011;57848;51.938;15.520;2023-12-29T05:45:41;4.70;;;1.43;;
70420;SDS011;57848;51.938;15.520;2023-12-29T05:48:07;4.87;;;1.30;;
70420;SDS011;57848;51.938;15.520;2023-12-29T05:50:33;5.30;;;1.40;;
70420;SDS011;57848;51.938;15.520;2023-12-29T05:52:58;5.93;;;1.40;;
70420;SDS011;57848;51.938;15.520;2023-12-29T05:55:23;5.90;;;1.23;;
70420;SDS011;57848;51.938;15.520;2023-12-29T05:57:49;5.40;;;1.50;;
70420;SDS011;57848;51.938;15.520;2023-12-29T06:00:14;5.20;;;1.20;;
70420;SDS011;57848;51.938;15.520;2023-12-29T06:02:40;4.43;;;1.10;;
70420;SDS011;57848;51.938;15.520;2023-12-29T06:05:07;5.00;;;1.30;;
70420;SDS011;57848;51.938;15.520;2023-12-29T06:07:33;4.18;;;1.17;;
70420;SDS011;57848;51.938;15.520;2023-12-29T06:09:58;4.30;;;1.20;;
70420;SDS011;57848;51.938;15.520;2023-12-29T06:12:24;4.60;;;1.27;;
70420;SDS011;57848;51.938;15.520;2023-12-29T06:14:49;6.63;;;1.60;;
70420;SDS011;57848;51.938;15.520;2023-12-29T06:17:15;4.85;;;1.40;;
70420;SDS011;57848;51.938;15.520;2023-12-29T06:19:40;4.60;;;1.17;;
70420;SDS011;57848;51.938;15.520;2023-12-29T06:22:06;5.13;;;1.60;;
70420;SDS011;57848;51.938;15.520;2023-12-29T06:24:36;3.85;;;1.00;;
70420;SDS011;57848;51.938;15.520;2023-12-29T06:27:02;4.57;;;1.20;;
70420;SDS011;57848;51.938;15.520;2023-12-29T06:29:27;5.23;;;1.33;;
70420;SDS011;57848;51.938;15.520;2023-12-29T06:31:53;5.80;;;1.50;;
70420;SDS011;57848;51.938;15.520;2023-12-29T06:34:18;6.07;;;1.60;;
70420;SDS011;57848;51.938;15.520;2023-12-29T06:36:43;4.50;;;1.30;;
70420;SDS011;57848;51.938;15.520;2023-12-29T06:39:09;5.47;;;1.63;;
70420;SDS011;57848;51.938;15.520;2023-12-29T06:41:34;4.87;;;1.40;;
70420;SDS011;57848;51.938;15.520;2023-12-29T06:43:59;5.17;;;1.30;;
70420;SDS011;57848;51.938;15.520;2023-12-29T06:46:25;4.80;;;1.20;;
70420;SDS011;57848;51.938;15.520;2023-12-29T06:48:50;6.33;;;1.17;;
70420;SDS011;57848;51.938;15.520;2023-12-29T06:51:16;3.92;;;1.00;;
70420;SDS011;57848;51.938;15.520;2023-12-29T06:53:42;5.50;;;1.60;;
70420;SDS011;57848;51.938;15.520;2023-12-29T06:56:12;5.13;;;1.27;;
70420;SDS011;57848;51.938;15.520;2023-12-29T06:58:38;4.70;;;1.10;;
70420;SDS011;57848;51.938;15.520;2023-12-29T07:01:03;6.60;;;1.45;;
70420;SDS011;57848;51.938;15.520;2023-12-29T07:03:29;5.70;;;1.57;;
70420;SDS011;57848;51.938;15.520;2023-12-29T07:05:54;4.77;;;1.50;;
70420;SDS011;57848;51.938;15.520;2023-12-29T07:08:19;5.13;;;1.37;;
70420;SDS011;57848;51.938;15.520;2023-12-29T07:10:45;5.20;;;1.40;;
70420;SDS011;57848;51.938;15.520;2023-12-29T07:13:13;4.68;;;1.25;;
70420;SDS011;57848;51.938;15.520;2023-12-29T07:15:38;4.73;;;1.40;;
70420;SDS011;57848;51.938;15.520;2023-12-29T07:18:04;4.07;;;1.03;;
70420;SDS011;57848;51.938;15.520;2023-12-29T07:20:29;5.20;;;1.52;;
70420;SDS011;57848;51.938;15.520;2023-12-29T07:22:55;4.68;;;1.27;;
70420;SDS011;57848;51.938;15.520;2023-12-29T07:25:21;4.67;;;1.20;;
70420;SDS011;57848;51.938;15.520;2023-12-29T07:27:46;4.90;;;1.50;;
70420;SDS011;57848;51.938;15.520;2023-12-29T07:30:12;4.47;;;1.23;;
70420;SDS011;57848;51.938;15.520;2023-12-29T07:32:37;4.93;;;1.35;;
70420;SDS011;57848;51.938;15.520;2023-12-29T07:35:03;4.50;;;1.30;;
70420;SDS011;57848;51.938;15.520;2023-12-29T07:37:28;4.65;;;1.33;;
70420;SDS011;57848;51.938;15.520;2023-12-29T07:39:54;5.47;;;1.50;;
70420;SDS011;57848;51.938;15.520;2023-12-29T07:42:19;5.17;;;1.40;;
70420;SDS011;57848;51.938;15.520;2023-12-29T07:44:44;5.23;;;1.57;;
70420;SDS011;57848;51.938;15.520;2023-12-29T07:47:10;6.73;;;1.93;;
70420;SDS011;57848;51.938;15.520;2023-12-29T07:49:36;6.65;;;1.73;;
70420;SDS011;57848;51.938;15.520;2023-12-29T07:52:02;6.83;;;2.10;;
70420;SDS011;57848;51.938;15.520;2023-12-29T07:54:27;6.97;;;2.20;;
70420;SDS011;57848;51.938;15.520;2023-12-29T07:56:53;6.30;;;2.20;;
70420;SDS011;57848;51.938;15.520;2023-12-29T07:59:18;5.30;;;1.50;;
70420;SDS011;57848;51.938;15.520;2023-12-29T08:01:43;6.07;;;1.57;;
70420;SDS011;57848;51.938;15.520;2023-12-29T08:04:08;7.00;;;1.90;;
70420;SDS011;57848;51.938;15.520;2023-12-29T08:06:36;4.50;;;1.30;;
70420;SDS011;57848;51.938;15.520;2023-12-29T08:09:02;4.97;;;1.50;;
70420;SDS011;57848;51.938;15.520;2023-12-29T08:11:28;5.03;;;1.33;;
70420;SDS011;57848;51.938;15.520;2023-12-29T08:13:53;5.00;;;1.70;;
70420;SDS011;57848;51.938;15.520;2023-12-29T08:16:18;6.20;;;1.95;;
70420;SDS011;57848;51.938;15.520;2023-12-29T08:18:44;6.63;;;1.77;;
70420;SDS011;57848;51.938;15.520;2023-12-29T08:21:20;5.88;;;1.50;;
70420;SDS011;57848;51.938;15.520;2023-12-29T08:23:46;5.90;;;1.97;;
70420;SDS011;57848;51.938;15.520;2023-12-29T08:26:12;6.70;;;1.95;;
70420;SDS011;57848;51.938;15.520;2023-12-29T08:28:37;5.90;;;1.80;;
70420;SDS011;57848;51.938;15.520;2023-12-29T08:31:03;6.97;;;2.20;;
70420;SDS011;57848;51.938;15.520;2023-12-29T08:33:28;7.13;;;2.03;;
70420;SDS011;57848;51.938;15.520;2023-12-29T08:35:54;5.10;;;1.60;;
70420;SDS011;57848;51.938;15.520;2023-12-29T08:38:24;5.70;;;2.00;;
70420;SDS011;57848;51.938;15.520;2023-12-29T08:40:49;6.63;;;2.27;;
70420;SDS011;57848;51.938;15.520;2023-12-29T08:43:14;8.93;;;2.83;;
70420;SDS011;57848;51.938;15.520;2023-12-29T08:45:42;8.75;;;2.22;;
70420;SDS011;57848;51.938;15.520;2023-12-29T08:48:07;7.13;;;2.20;;
70420;SDS011;57848;51.938;15.520;2023-12-29T08:50:32;6.73;;;1.87;;
70420;SDS011;57848;51.938;15.520;2023-12-29T08:52:58;7.77;;;2.23;;
70420;SDS011;57848;51.938;15.520;2023-12-29T08:55:23;7.07;;;1.93;;
70420;SDS011;57848;51.938;15.520;2023-12-29T08:57:48;5.80;;;1.65;;
70420;SDS011;57848;51.938;15.520;2023-12-29T09:00:14;7.27;;;1.93;;
70420;SDS011;57848;51.938;15.520;2023-12-29T09:02:39;5.37;;;1.63;;
70420;SDS011;57848;51.938;15.520;2023-12-29T09:05:05;6.03;;;1.63;;
70420;SDS011;57848;51.938;15.520;2023-12-29T09:07:32;6.88;;;1.73;;
70420;SDS011;57848;51.938;15.520;2023-12-29T09:09:58;5.50;;;1.60;;
70420;SDS011;57848;51.938;15.520;2023-12-29T09:12:24;5.10;;;1.50;;
70420;SDS011;57848;51.938;15.520;2023-12-29T09:14:49;5.10;;;1.67;;
70420;SDS011;57848;51.938;15.520;2023-12-29T09:17:14;6.23;;;1.87;;
70420;SDS011;57848;51.938;15.520;2023-12-29T09:19:40;7.13;;;2.23;;
70420;SDS011;57848;51.938;15.520;2023-12-29T09:22:05;7.27;;;2.67;;
70420;SDS011;57848;51.938;15.520;2023-12-29T09:24:30;7.27;;;1.90;;
70420;SDS011;57848;51.938;15.520;2023-12-29T09:26:56;7.07;;;2.15;;
70420;SDS011;57848;51.938;15.520;2023-12-29T09:29:21;6.37;;;1.90;;
70420;SDS011;57848;51.938;15.520;2023-12-29T09:31:47;6.80;;;2.60;;
70420;SDS011;57848;51.938;15.520;2023-12-29T09:34:12;6.17;;;1.93;;
70420;SDS011;57848;51.938;15.520;2023-12-29T09:36:37;5.67;;;1.70;;
70420;SDS011;57848;51.938;15.520;2023-12-29T09:39:03;6.82;;;2.03;;
70420;SDS011;57848;51.938;15.520;2023-12-29T09:41:28;6.03;;;1.70;;
70420;SDS011;57848;51.938;15.520;2023-12-29T09:43:58;7.13;;;2.03;;
70420;SDS011;57848;51.938;15.520;2023-12-29T09:46:26;4.78;;;1.30;;
70420;SDS011;57848;51.938;15.520;2023-12-29T09:48:57;5.78;;;1.67;;
70420;SDS011;57848;51.938;15.520;2023-12-29T09:51:27;6.03;;;1.50;;
70420;SDS011;57848;51.938;15.520;2023-12-29T09:53:54;5.55;;;1.63;;
70420;SDS011;57848;51.938;15.520;2023-12-29T09:56:20;4.60;;;1.20;;
70420;SDS011;57848;51.938;15.520;2023-12-29T09:58:46;5.50;;;1.92;;
70420;SDS011;57848;51.938;15.520;2023-12-29T10:01:13;5.20;;;1.50;;
70420;SDS011;57848;51.938;15.520;2023-12-29T10:03:39;6.43;;;1.50;;
70420;SDS011;57848;51.938;15.520;2023-12-29T10:06:06;7.03;;;1.80;;
70420;SDS011;57848;51.938;15.520;2023-12-29T10:08:33;6.20;;;1.40;;
70420;SDS011;57848;51.938;15.520;2023-12-29T10:10:59;7.95;;;1.70;;
70420;SDS011;57848;51.938;15.520;2023-12-29T10:13:26;6.20;;;1.60;;
70420;SDS011;57848;51.938;15.520;2023-12-29T10:16:20;5.30;;;1.70;;
70420;SDS011;57848;51.938;15.520;2023-12-29T10:18:57;4.97;;;2.03;;
70420;SDS011;57848;51.938;15.520;2023-12-29T10:21:41;5.18;;;1.75;;
70420;SDS011;57848;51.938;15.520;2023-12-29T10:24:17;5.30;;;1.55;;
70420;SDS011;57848;51.938;15.520;2023-12-29T10:26:44;7.75;;;1.70;;
70420;SDS011;57848;51.938;15.520;2023-12-29T10:29:11;6.20;;;1.80;;
70420;SDS011;57848;51.938;15.520;2023-12-29T10:31:37;5.68;;;1.42;;
70420;SDS011;57848;51.938;15.520;2023-12-29T10:36:54;5.22;;;1.60;;
70420;SDS011;57848;51.938;15.520;2023-12-29T10:39:21;7.35;;;1.40;;
70420;SDS011;57848;51.938;15.520;2023-12-29T10:41:46;5.17;;;1.50;;
70420;SDS011;57848;51.938;15.520;2023-12-29T10:44:12;4.90;;;1.27;;
70420;SDS011;57848;51.938;15.520;2023-12-29T10:46:37;4.88;;;1.60;;
70420;SDS011;57848;51.938;15.520;2023-12-29T10:49:09;7.80;;;2.50;;
70420;SDS011;57848;51.938;15.520;2023-12-29T10:51:36;4.45;;;1.48;;
70420;SDS011;57848;51.938;15.520;2023-12-29T10:54:03;6.40;;;1.60;;
70420;SDS011;57848;51.938;15.520;2023-12-29T10:56:29;4.20;;;1.10;;
70420;SDS011;57848;51.938;15.520;2023-12-29T10:59:01;8.00;;;1.60;;
70420;SDS011;57848;51.938;15.520;2023-12-29T11:01:28;6.20;;;1.60;;
70420;SDS011;57848;51.938;15.520;2023-12-29T11:04:02;6.20;;;1.27;;
70420;SDS011;57848;51.938;15.520;2023-12-29T11:06:29;5.87;;;1.80;;
70420;SDS011;57848;51.938;15.520;2023-12-29T11:09:05;4.70;;;1.33;;
70420;SDS011;57848;51.938;15.520;2023-12-29T11:11:30;6.43;;;1.87;;
70420;SDS011;57848;51.938;15.520;2023-12-29T11:13:57;5.53;;;1.80;;
70420;SDS011;57848;51.938;15.520;2023-12-29T11:16:22;5.25;;;1.60;;
70420;SDS011;57848;51.938;15.520;2023-12-29T11:18:49;5.30;;;1.63;;
70420;SDS011;57848;51.938;15.520;2023-12-29T11:21:18;5.13;;;1.55;;
70420;SDS011;57848;51.938;15.520;2023-12-29T11:23:46;5.45;;;1.90;;
70420;SDS011;57848;51.938;15.520;2023-12-29T11:26:12;6.53;;;1.70;;
70420;SDS011;57848;51.938;15.520;2023-12-29T11:28:37;7.05;;;2.10;;
70420;SDS011;57848;51.938;15.520;2023-12-29T11:31:03;6.30;;;1.80;;
70420;SDS011;57848;51.938;15.520;2023-12-29T11:33:34;6.60;;;2.50;;
70420;SDS011;57848;51.938;15.520;2023-12-29T11:36:23;5.93;;;2.55;;
70420;SDS011;57848;51.938;15.520;2023-12-29T11:39:06;6.43;;;1.95;;
70420;SDS011;57848;51.938;15.520;2023-12-29T11:41:45;6.43;;;2.10;;
70420;SDS011;57848;51.938;15.520;2023-12-29T11:44:25;4.23;;;1.37;;
70420;SDS011;57848;51.938;15.520;2023-12-29T11:46:52;5.85;;;1.80;;
70420;SDS011;57848;51.938;15.520;2023-12-29T11:49:17;6.82;;;1.48;;
70420;SDS011;57848;51.938;15.520;2023-12-29T11:51:44;8.73;;;2.10;;
70420;SDS011;57848;51.938;15.520;2023-12-29T11:54:20;5.82;;;1.90;;
70420;SDS011;57848;51.938;15.520;2023-12-29T11:56:47;5.60;;;1.70;;
70420;SDS011;57848;51.938;15.520;2023-12-29T12:01:38;7.28;;;1.67;;
70420;SDS011;57848;51.938;15.520;2023-12-29T12:04:04;5.60;;;1.83;;
70420;SDS011;57848;51.938;15.520;2023-12-29T12:06:39;6.97;;;2.17;;
70420;SDS011;57848;51.938;15.520;2023-12-29T12:09:17;5.90;;;2.03;;
70420;SDS011;57848;51.938;15.520;2023-12-29T12:11:47;6.10;;;1.42;;
70420;SDS011;57848;51.938;15.520;2023-12-29T12:17:25;6.57;;;1.40;;
70420;SDS011;57848;51.938;15.520;2023-12-29T12:19:52;6.30;;;1.70;;
70420;SDS011;57848;51.938;15.520;2023-12-29T12:22:21;7.57;;;1.80;;
70420;SDS011;57848;51.938;15.520;2023-12-29T12:24:49;5.63;;;1.45;;
70420;SDS011;57848;51.938;15.520;2023-12-29T12:27:25;5.13;;;1.30;;
70420;SDS011;57848;51.938;15.520;2023-12-29T12:29:55;5.13;;;1.52;;
70420;SDS011;57848;51.938;15.520;2023-12-29T12:32:24;5.53;;;1.67;;
70420;SDS011;57848;51.938;15.520;2023-12-29T12:34:52;5.00;;;1.70;;
70420;SDS011;57848;51.938;15.520;2023-12-29T12:37:18;6.88;;;2.00;;
70420;SDS011;57848;51.938;15.520;2023-12-29T12:39:47;4.40;;;1.27;;
70420;SDS011;57848;51.938;15.520;2023-12-29T12:42:14;5.82;;;1.58;;
70420;SDS011;57848;51.938;15.520;2023-12-29T12:44:41;5.13;;;1.63;;
70420;SDS011;57848;51.938;15.520;2023-12-29T12:47:08;4.97;;;1.20;;
70420;SDS011;57848;51.938;15.520;2023-12-29T12:49:39;5.90;;;1.23;;
70420;SDS011;57848;51.938;15.520;2023-12-29T12:52:04;6.17;;;1.90;;
70420;SDS011;57848;51.938;15.520;2023-12-29T12:54:29;5.90;;;1.70;;
70420;SDS011;57848;51.938;15.520;2023-12-29T12:56:55;4.97;;;1.45;;
70420;SDS011;57848;51.938;15.520;2023-12-29T12:59:21;6.07;;;1.53;;
70420;SDS011;57848;51.938;15.520;2023-12-29T13:01:46;5.60;;;1.90;;
70420;SDS011;57848;51.938;15.520;2023-12-29T13:04:12;4.85;;;1.65;;
70420;SDS011;57848;51.938;15.520;2023-12-29T13:06:39;6.27;;;1.80;;
70420;SDS011;57848;51.938;15.520;2023-12-29T13:09:06;7.93;;;1.70;;
70420;SDS011;57848;51.938;15.520;2023-12-29T13:11:37;8.25;;;1.90;;
70420;SDS011;57848;51.938;15.520;2023-12-29T13:14:03;7.38;;;1.88;;
70420;SDS011;57848;51.938;15.520;2023-12-29T13:16:36;5.20;;;1.55;;
70420;SDS011;57848;51.938;15.520;2023-12-29T13:19:15;4.63;;;1.50;;
70420;SDS011;57848;51.938;15.520;2023-12-29T13:21:45;5.72;;;1.67;;
70420;SDS011;57848;51.938;15.520;2023-12-29T13:24:11;6.00;;;1.90;;
70420;SDS011;57848;51.938;15.520;2023-12-29T13:26:36;5.13;;;1.43;;
70420;SDS011;57848;51.938;15.520;2023-12-29T13:29:02;6.57;;;1.85;;
70420;SDS011;57848;51.938;15.520;2023-12-29T13:31:28;6.97;;;1.80;;
70420;SDS011;57848;51.938;15.520;2023-12-29T13:33:57;5.28;;;1.55;;
70420;SDS011;57848;51.938;15.520;2023-12-29T13:36:29;5.40;;;1.40;;
70420;SDS011;57848;51.938;15.520;2023-12-29T13:39:07;5.05;;;1.42;;
70420;SDS011;57848;51.938;15.520;2023-12-29T13:42:00;6.65;;;1.58;;
70420;SDS011;57848;51.938;15.520;2023-12-29T13:44:29;5.30;;;1.30;;
70420;SDS011;57848;51.938;15.520;2023-12-29T13:46:57;7.28;;;1.50;;
70420;SDS011;57848;51.938;15.520;2023-12-29T13:49:23;5.40;;;1.47;;
70420;SDS011;57848;51.938;15.520;2023-12-29T13:51:48;6.37;;;1.40;;
70420;SDS011;57848;51.938;15.520;2023-12-29T13:54:13;5.93;;;1.50;;
70420;SDS011;57848;51.938;15.520;2023-12-29T13:56:50;6.27;;;1.60;;
70420;SDS011;57848;51.938;15.520;2023-12-29T13:59:16;6.45;;;1.50;;
70420;SDS011;57848;51.938;15.520;2023-12-29T14:01:41;5.53;;;1.90;;
70420;SDS011;57848;51.938;15.520;2023-12-29T14:04:07;7.17;;;1.60;;
70420;SDS011;57848;51.938;15.520;2023-12-29T14:06:43;6.40;;;1.70;;
70420;SDS011;57848;51.938;15.520;2023-12-29T14:09:15;4.60;;;1.63;;
70420;SDS011;57848;51.938;15.520;2023-12-29T14:11:45;5.03;;;1.27;;
70420;SDS011;57848;51.938;15.520;2023-12-29T14:14:11;6.40;;;1.73;;
70420;SDS011;57848;51.938;15.520;2023-12-29T14:16:40;5.50;;;1.30;;
70420;SDS011;57848;51.938;15.520;2023-12-29T14:19:05;5.03;;;1.17;;
70420;SDS011;57848;51.938;15.520;2023-12-29T14:21:32;5.80;;;1.10;;
70420;SDS011;57848;51.938;15.520;2023-12-29T14:26:24;6.87;;;1.87;;
70420;SDS011;57848;51.938;15.520;2023-12-29T14:31:35;6.88;;;1.75;;
70420;SDS011;57848;51.938;15.520;2023-12-29T14:34:02;6.33;;;1.50;;
70420;SDS011;57848;51.938;15.520;2023-12-29T14:36:28;5.50;;;1.67;;
70420;SDS011;57848;51.938;15.520;2023-12-29T14:38:54;7.35;;;2.00;;
70420;SDS011;57848;51.938;15.520;2023-12-29T14:41:20;9.37;;;2.57;;
70420;SDS011;57848;51.938;15.520;2023-12-29T14:43:45;8.03;;;2.20;;
70420;SDS011;57848;51.938;15.520;2023-12-29T14:46:10;8.27;;;2.07;;
70420;SDS011;57848;51.938;15.520;2023-12-29T14:48:36;5.45;;;1.73;;